Terminal Aerodrome Forecast
Issued by NWS Goodland, KS

Home | Current Version | Previous Version | Text Only | Print | Product List | Glossary On
Versions: 1 2 3 4 5 6 7 8 9 10 11 12 13 14 15 16 17 18
000
FTUS43 KGLD 270036 AAA
TAFGLD
TAF AMD
KGLD 270036Z 2701/2724 16013KT P6SM VCTS SCT080CB BKN200
      TEMPO 2701/2703 31024G37KT -TSRA BKN050CB
     FM270300 18008KT P6SM BKN250
     FM271300 21006KT P6SM SCT250
     FM271800 17007KT P6SM FEW250
     FM272000 13007KT P6SM SCT250=

USA.gov is the U.S. government's official web portal to all federal, state and local government web resources and services.